createdAt,value
2018-12-15T00:01:57.443Z,20.87
2018-12-15T00:04:25.195Z,22.77
2018-12-15T00:06:52.855Z,20.87
2018-12-15T00:09:20.556Z,21.33
2018-12-15T00:11:48.242Z,20.63
2018-12-15T00:14:15.916Z,19.37
2018-12-15T00:16:43.640Z,19.43
2018-12-15T00:19:11.394Z,19.03
2018-12-15T00:21:39.090Z,19.27
2018-12-15T00:24:06.750Z,19.70
2018-12-15T00:26:34.472Z,18.53
2018-12-15T00:29:02.126Z,18.97
2018-12-15T00:31:29.761Z,18.97
2018-12-15T00:33:57.496Z,18.27
2018-12-15T00:36:25.194Z,19.10
2018-12-15T00:38:52.869Z,18.13
2018-12-15T00:41:20.569Z,17.90
2018-12-15T00:43:48.412Z,17.90
2018-12-15T00:46:16.094Z,17.73
2018-12-15T00:48:43.762Z,18.10
2018-12-15T00:51:11.512Z,18.33
2018-12-15T00:53:39.248Z,19.53
2018-12-15T00:56:06.953Z,18.00
2018-12-15T00:58:34.619Z,18.47
2018-12-15T01:01:02.319Z,18.40
2018-12-15T01:03:30.117Z,18.83
2018-12-15T01:05:58.582Z,17.70
2018-12-15T01:08:26.274Z,17.13
2018-12-15T01:10:54.018Z,18.13
2018-12-15T01:13:21.705Z,17.43
2018-12-15T01:15:49.381Z,17.90
2018-12-15T01:18:17.076Z,18.37
2018-12-15T01:20:44.779Z,16.43
2018-12-15T01:23:12.473Z,18.00
2018-12-15T01:25:40.183Z,18.07
2018-12-15T01:28:07.879Z,19.27
2018-12-15T01:30:35.546Z,17.63
2018-12-15T01:33:03.260Z,17.23
2018-12-15T01:35:31.032Z,17.87
2018-12-15T01:37:58.725Z,18.10
2018-12-15T01:40:26.727Z,16.67
2018-12-15T01:42:54.383Z,17.67
2018-12-15T01:45:22.053Z,18.00
2018-12-15T01:47:49.731Z,18.13
2018-12-15T01:50:17.391Z,19.23
2018-12-15T01:52:45.097Z,19.63
2018-12-15T01:55:12.930Z,19.40
2018-12-15T01:57:40.621Z,20.10
2018-12-15T02:00:08.558Z,20.77
2018-12-15T02:02:36.280Z,20.43
2018-12-15T02:05:04.383Z,20.30
2018-12-15T02:07:32.059Z,19.50
2018-12-15T02:09:59.736Z,19.23
2018-12-15T02:12:27.400Z,17.23
2018-12-15T02:14:55.056Z,17.90
2018-12-15T02:17:22.759Z,16.67
2018-12-15T02:19:50.610Z,17.23
2018-12-15T02:22:18.304Z,17.17
2018-12-15T02:24:46.043Z,17.90
2018-12-15T02:27:13.688Z,18.13
2018-12-15T02:29:41.340Z,17.17
2018-12-15T02:32:09.038Z,17.13
2018-12-15T02:34:36.699Z,17.73
2018-12-15T02:37:04.380Z,17.63
2018-12-15T02:39:32.087Z,16.83
2018-12-15T02:41:59.740Z,17.13
2018-12-15T02:44:27.447Z,15.43
2018-12-15T02:46:55.154Z,17.37
2018-12-15T02:49:22.824Z,16.23
2018-12-15T02:51:50.470Z,16.40
2018-12-15T02:54:18.172Z,17.50
2018-12-15T02:56:45.826Z,16.57
2018-12-15T02:59:13.524Z,17.20
2018-12-15T03:01:41.231Z,16.77
2018-12-15T03:04:08.872Z,17.13
2018-12-15T03:06:37.286Z,15.90
2018-12-15T03:09:06.353Z,17.07
2018-12-15T03:11:34.059Z,16.47
2018-12-15T03:14:02.068Z,16.03
2018-12-15T03:16:29.775Z,16.13
2018-12-15T03:19:04.135Z,16.63
2018-12-15T03:21:31.829Z,16.83
2018-12-15T03:23:59.502Z,16.63
2018-12-15T03:26:27.750Z,17.07
2018-12-15T03:28:55.449Z,16.37
2018-12-15T03:31:23.142Z,16.03
2018-12-15T03:33:50.881Z,17.10
2018-12-15T03:36:18.808Z,17.00
2018-12-15T03:38:46.491Z,16.77
2018-12-15T03:41:14.329Z,17.23
2018-12-15T03:43:42.154Z,16.80
2018-12-15T03:46:10.566Z,16.53
2018-12-15T03:48:38.415Z,18.30
2018-12-15T03:51:06.105Z,18.73
2018-12-15T03:53:33.849Z,20.87
2018-12-15T03:56:01.566Z,21.23
2018-12-15T03:58:29.309Z,21.87
2018-12-15T04:01:01.085Z,20.17
2018-12-15T04:03:29.642Z,20.30
2018-12-15T04:05:57.380Z,18.80
2018-12-15T04:08:25.073Z,18.83
2018-12-15T04:10:52.944Z,18.07
2018-12-15T04:13:20.603Z,18.17
2018-12-15T04:15:48.286Z,16.07
2018-12-15T04:18:15.984Z,16.27
2018-12-15T04:20:43.671Z,17.50
2018-12-15T04:23:11.320Z,18.17
2018-12-15T04:25:39.001Z,16.00
2018-12-15T04:28:06.675Z,16.03
2018-12-15T04:30:34.697Z,17.47
2018-12-15T04:33:02.398Z,16.13
2018-12-15T04:35:30.089Z,16.30
2018-12-15T04:37:58.029Z,15.80
2018-12-15T04:40:25.854Z,15.63
2018-12-15T04:42:53.638Z,15.80
2018-12-15T04:45:21.297Z,14.73
2018-12-15T04:47:49.020Z,13.77
2018-12-15T04:50:16.677Z,15.70
2018-12-15T04:52:44.347Z,15.83
2018-12-15T04:55:12.027Z,15.43
2018-12-15T04:57:39.698Z,15.57
2018-12-15T05:00:07.645Z,15.97
2018-12-15T05:02:35.336Z,15.70
2018-12-15T05:05:03.235Z,15.50
2018-12-15T05:07:30.911Z,14.60
2018-12-15T05:09:58.664Z,14.67
2018-12-15T05:12:26.601Z,15.43
2018-12-15T05:14:54.302Z,16.73
2018-12-15T05:17:22.008Z,17.43
2018-12-15T05:19:49.689Z,15.63
2018-12-15T05:22:17.436Z,15.93
2018-12-15T05:24:45.387Z,15.93
2018-12-15T05:27:14.326Z,15.37
2018-12-15T05:29:41.996Z,15.47
2018-12-15T05:32:09.714Z,16.50
2018-12-15T05:34:43.164Z,16.70
2018-12-15T05:37:10.943Z,16.33
2018-12-15T05:39:38.635Z,15.00
2018-12-15T05:42:06.435Z,17.07
2018-12-15T05:44:34.132Z,15.17
2018-12-15T05:47:01.841Z,16.37
2018-12-15T05:49:29.660Z,15.40
2018-12-15T05:51:57.426Z,16.20
2018-12-15T05:54:25.115Z,18.33
2018-12-15T05:56:52.854Z,17.27
2018-12-15T05:59:20.668Z,17.00
2018-12-15T06:01:48.331Z,17.53
2018-12-15T06:04:15.998Z,16.30
2018-12-15T06:06:43.701Z,17.43
2018-12-15T06:09:11.374Z,16.10
2018-12-15T06:11:39.074Z,17.07
2018-12-15T06:14:06.822Z,15.80
2018-12-15T06:16:34.716Z,17.07
2018-12-15T06:19:02.422Z,16.43
2018-12-15T06:21:30.266Z,16.60
2018-12-15T06:23:57.940Z,16.63
2018-12-15T06:26:25.616Z,16.57
2018-12-15T06:28:53.324Z,17.47
2018-12-15T06:31:21.004Z,15.50
2018-12-15T06:33:48.679Z,17.53
2018-12-15T06:36:16.350Z,16.07
2018-12-15T06:38:44.017Z,16.60
2018-12-15T06:41:11.659Z,19.37
2018-12-15T06:43:39.458Z,19.27
2018-12-15T06:46:07.582Z,18.37
2018-12-15T06:48:38.114Z,20.73
2018-12-15T06:51:05.070Z,18.67
2018-12-15T06:53:32.759Z,19.87
2018-12-15T06:56:00.428Z,18.33
2018-12-15T06:58:28.930Z,19.00
2018-12-15T07:00:56.704Z,18.57
2018-12-15T07:03:24.348Z,18.73
2018-12-15T07:05:52.014Z,19.40
2018-12-15T07:08:19.817Z,21.67
2018-12-15T07:10:47.492Z,23.83
2018-12-15T07:13:15.196Z,21.53
2018-12-15T07:15:42.920Z,18.20
2018-12-15T07:18:10.611Z,19.13
2018-12-15T07:20:38.453Z,19.00
2018-12-15T07:23:06.217Z,18.57
2018-12-15T07:25:34.119Z,19.47
2018-12-15T07:28:01.839Z,19.20
2018-12-15T07:30:29.766Z,22.00
2018-12-15T07:32:57.440Z,22.47
2018-12-15T07:35:25.131Z,20.33
2018-12-15T07:37:52.869Z,19.03
2018-12-15T07:40:20.809Z,20.20
2018-12-15T07:42:48.499Z,19.90
2018-12-15T07:45:16.265Z,20.60
2018-12-15T07:47:43.945Z,19.10
2018-12-15T07:50:12.015Z,19.47
2018-12-15T07:52:40.226Z,19.67
2018-12-15T07:55:07.923Z,18.53
2018-12-15T07:57:35.662Z,20.93
2018-12-15T08:00:04.743Z,19.73
2018-12-15T08:02:32.435Z,19.83
2018-12-15T08:05:00.103Z,19.50
2018-12-15T08:07:28.055Z,21.30
2018-12-15T08:09:57.757Z,21.47
2018-12-15T08:12:31.165Z,20.73
2018-12-15T08:14:58.818Z,21.20
2018-12-15T08:17:27.038Z,19.00
2018-12-15T08:19:54.809Z,18.73
2018-12-15T08:22:26.204Z,19.50
2018-12-15T08:24:52.269Z,19.80
2018-12-15T08:27:19.994Z,18.83
2018-12-15T08:29:47.705Z,18.53
2018-12-15T08:32:15.417Z,15.97
2018-12-15T08:34:43.171Z,16.93
2018-12-15T08:37:10.842Z,18.20
2018-12-15T08:39:38.541Z,15.80
2018-12-15T08:42:06.239Z,15.87
2018-12-15T08:44:33.915Z,15.97
2018-12-15T08:47:01.571Z,13.80
2018-12-15T08:49:29.249Z,14.90
2018-12-15T08:51:56.963Z,15.40
2018-12-15T08:54:24.659Z,13.97
2018-12-15T08:56:52.445Z,13.87
2018-12-15T08:59:28.179Z,14.33
2018-12-15T09:01:57.528Z,15.30
2018-12-15T09:04:25.320Z,15.10
2018-12-15T09:06:53.033Z,14.07
2018-12-15T09:09:20.745Z,14.10
2018-12-15T09:11:48.801Z,14.80
2018-12-15T09:14:16.578Z,13.63
2018-12-15T09:16:44.264Z,15.27
2018-12-15T09:19:11.951Z,12.53
2018-12-15T09:21:39.742Z,14.03
2018-12-15T09:24:07.553Z,13.80
2018-12-15T09:26:35.288Z,13.37
2018-12-15T09:29:03.159Z,11.93
2018-12-15T09:31:30.919Z,11.47
2018-12-15T09:33:58.653Z,12.10
2018-12-15T09:36:26.348Z,13.47
2018-12-15T09:38:54.018Z,14.93
2018-12-15T09:41:21.653Z,13.87
2018-12-15T09:43:49.278Z,12.27
2018-12-15T09:46:17.152Z,11.23
2018-12-15T09:48:44.838Z,13.30
2018-12-15T09:51:12.600Z,13.37
2018-12-15T09:53:40.502Z,11.90
2018-12-15T09:56:08.193Z,12.80
2018-12-15T09:58:35.884Z,12.80
2018-12-15T10:01:03.718Z,11.80
2018-12-15T10:03:31.418Z,13.47
2018-12-15T10:05:59.086Z,13.83
2018-12-15T10:08:27.082Z,12.97
2018-12-15T10:11:01.541Z,12.80
2018-12-15T10:13:29.363Z,13.10
2018-12-15T10:15:57.125Z,13.53
2018-12-15T10:18:24.864Z,12.70
2018-12-15T10:20:52.603Z,13.90
2018-12-15T10:23:20.302Z,14.83
2018-12-15T10:25:48.044Z,14.47
2018-12-15T10:28:16.295Z,12.57
2018-12-15T10:30:49.846Z,12.20
2018-12-15T10:33:17.646Z,14.37
2018-12-15T10:35:45.335Z,15.97
2018-12-15T10:38:13.002Z,15.73
2018-12-15T10:40:41.461Z,11.27
2018-12-15T10:43:09.138Z,10.90
2018-12-15T10:45:36.811Z,10.87
2018-12-15T10:48:04.533Z,12.13
2018-12-15T10:50:32.201Z,11.97
2018-12-15T10:53:00.013Z,11.40
2018-12-15T10:55:27.705Z,9.97
2018-12-15T10:57:55.356Z,11.73
2018-12-15T11:00:25.948Z,11.03
2018-12-15T11:02:54.102Z,11.70
2018-12-15T11:05:23.657Z,12.33
2018-12-15T11:07:51.730Z,10.60
2018-12-15T11:10:19.559Z,10.27
2018-12-15T11:12:48.151Z,10.43
2018-12-15T11:15:17.599Z,11.37
2018-12-15T11:17:45.334Z,10.87
2018-12-15T11:20:15.702Z,10.30
2018-12-15T11:22:43.453Z,10.53
2018-12-15T11:25:13.265Z,9.70
2018-12-15T11:27:41.048Z,10.63
2018-12-15T11:30:08.794Z,10.20
2018-12-15T11:32:37.191Z,11.13
2018-12-15T11:35:05.339Z,11.30
2018-12-15T11:37:33.026Z,10.30
2018-12-15T11:40:00.786Z,12.07
2018-12-15T11:42:28.616Z,12.97
2018-12-15T11:44:56.345Z,13.83
2018-12-15T11:47:24.844Z,14.93
2018-12-15T11:49:52.575Z,12.20
2018-12-15T11:52:20.312Z,12.77
2018-12-15T11:54:48.770Z,11.50
2018-12-15T11:57:16.471Z,11.80
2018-12-15T11:59:44.216Z,13.30
2018-12-15T12:02:11.983Z,11.87
2018-12-15T12:04:42.855Z,11.73
2018-12-15T12:07:10.547Z,13.10
2018-12-15T12:09:41.318Z,13.20
2018-12-15T12:12:09.046Z,12.80
2018-12-15T12:14:36.701Z,12.87
2018-12-15T12:17:04.396Z,11.80
2018-12-15T12:19:32.146Z,12.47
2018-12-15T12:21:59.794Z,11.30
2018-12-15T12:24:27.537Z,11.73
2018-12-15T12:26:55.270Z,12.97
2018-12-15T12:29:23.032Z,12.87
2018-12-15T12:31:50.748Z,12.50
2018-12-15T12:34:18.438Z,16.17
2018-12-15T12:36:46.144Z,14.73
2018-12-15T12:39:13.862Z,16.93
2018-12-15T12:41:41.558Z,15.23
2018-12-15T12:44:09.263Z,14.93
2018-12-15T12:46:43.660Z,14.53
2018-12-15T12:49:11.374Z,14.97
2018-12-15T12:51:39.794Z,11.47
2018-12-15T12:54:07.522Z,11.33
2018-12-15T12:56:35.484Z,12.97
2018-12-15T12:59:03.278Z,13.60
2018-12-15T13:01:31.006Z,13.30
2018-12-15T13:03:58.696Z,12.03
2018-12-15T13:06:26.406Z,12.20
2018-12-15T13:08:54.120Z,10.73
2018-12-15T13:11:21.809Z,19.60
2018-12-15T13:13:49.554Z,14.33
2018-12-15T13:16:19.046Z,24.57
2018-12-15T13:18:47.060Z,19.30
2018-12-15T13:21:14.776Z,19.13
2018-12-15T13:23:42.502Z,18.00
2018-12-15T13:26:10.198Z,14.07
2018-12-15T13:28:37.910Z,14.70
2018-12-15T13:31:05.784Z,14.80
2018-12-15T13:33:35.942Z,12.60
2018-12-15T13:36:10.919Z,14.50
2018-12-15T13:38:38.646Z,13.13
2018-12-15T13:41:06.601Z,15.07
2018-12-15T13:43:34.456Z,15.40
2018-12-15T13:46:02.220Z,15.70
2018-12-15T13:48:29.943Z,14.07
2018-12-15T13:50:57.670Z,13.67
2018-12-15T13:53:25.394Z,13.57
2018-12-15T13:55:53.169Z,14.60
2018-12-15T13:58:20.902Z,16.20
2018-12-15T14:00:48.670Z,17.17
2018-12-15T14:03:16.490Z,16.43
2018-12-15T14:08:28.412Z,21.77
2018-12-15T14:10:56.187Z,21.53
2018-12-15T14:13:23.876Z,22.43
2018-12-15T14:15:51.558Z,15.83
2018-12-15T14:18:19.273Z,16.80
2018-12-15T14:20:46.987Z,20.10
2018-12-15T14:23:21.310Z,19.77
2018-12-15T14:25:49.254Z,24.07
2018-12-15T14:28:16.969Z,31.20
2018-12-15T14:30:44.705Z,36.80
2018-12-15T14:33:12.390Z,40.70
2018-12-15T14:35:40.082Z,34.87
2018-12-15T14:38:07.800Z,21.13
2018-12-15T14:40:35.473Z,28.83
2018-12-15T14:43:03.229Z,30.77
2018-12-15T14:45:30.934Z,23.17
2018-12-15T14:47:58.640Z,22.50
2018-12-15T14:50:26.294Z,26.37
2018-12-15T14:52:54.056Z,28.33
2018-12-15T14:55:21.859Z,25.70
2018-12-15T14:57:49.564Z,23.70
2018-12-15T15:00:17.375Z,23.50
2018-12-15T15:02:45.046Z,23.13
2018-12-15T15:05:12.808Z,25.57
2018-12-15T15:07:40.602Z,26.30
2018-12-15T15:10:08.504Z,23.97
2018-12-15T15:12:36.198Z,27.80
2018-12-15T15:15:04.672Z,25.27
2018-12-15T15:17:32.512Z,23.53
2018-12-15T15:20:00.200Z,26.17
2018-12-15T15:22:28.028Z,26.33
2018-12-15T15:24:55.717Z,25.67
2018-12-15T15:27:23.413Z,27.50
2018-12-15T15:29:54.864Z,25.57
2018-12-15T15:32:22.572Z,28.53
2018-12-15T15:34:50.249Z,26.20
2018-12-15T15:37:17.967Z,22.23
2018-12-15T15:39:45.670Z,15.73
2018-12-15T15:42:13.382Z,17.13
2018-12-15T15:44:41.092Z,14.80
2018-12-15T15:47:11.309Z,20.17
2018-12-15T15:49:39.404Z,13.53
2018-12-15T15:52:07.137Z,17.90
2018-12-15T15:54:34.885Z,16.13
2018-12-15T15:57:02.631Z,17.30
2018-12-15T15:59:30.349Z,16.50
2018-12-15T16:01:59.947Z,16.33
2018-12-15T16:04:27.645Z,18.30
2018-12-15T16:06:55.431Z,21.00
2018-12-15T16:09:23.214Z,22.07
2018-12-15T16:11:50.898Z,22.63
2018-12-15T16:14:18.689Z,17.70
2018-12-15T16:16:46.417Z,20.03
2018-12-15T16:19:14.052Z,17.90
2018-12-15T16:21:41.719Z,18.10
2018-12-15T16:24:09.357Z,20.77
2018-12-15T16:26:37.037Z,23.70
2018-12-15T16:29:04.837Z,24.07
2018-12-15T16:31:32.537Z,29.67
2018-12-15T16:34:00.224Z,25.27
2018-12-15T16:36:27.905Z,23.70
2018-12-15T16:38:55.589Z,21.90
2018-12-15T16:41:23.314Z,23.23
2018-12-15T16:43:50.998Z,21.90
2018-12-15T16:46:18.631Z,24.27
2018-12-15T16:48:46.341Z,27.07
2018-12-15T16:51:14.039Z,27.80
2018-12-15T16:53:41.691Z,27.50
2018-12-15T16:56:09.378Z,33.93
2018-12-15T16:58:37.105Z,36.23
2018-12-15T17:01:04.892Z,33.03
2018-12-15T17:03:32.603Z,35.33
2018-12-15T17:06:00.394Z,41.50
2018-12-15T17:08:28.066Z,36.80
2018-12-15T17:10:55.770Z,38.83
2018-12-15T17:13:23.509Z,34.97
2018-12-15T17:15:51.198Z,32.13
2018-12-15T17:18:18.919Z,33.57
2018-12-15T17:20:46.640Z,34.43
2018-12-15T17:23:14.300Z,36.43
2018-12-15T17:25:41.984Z,38.30
2018-12-15T17:28:09.693Z,41.47
2018-12-15T17:30:37.389Z,38.00
2018-12-15T17:33:05.088Z,42.90
2018-12-15T17:35:32.833Z,42.33
2018-12-15T17:38:00.556Z,40.80
2018-12-15T17:40:28.265Z,39.03
2018-12-15T17:42:56.071Z,34.20
2018-12-15T17:45:23.803Z,32.67
2018-12-15T17:47:51.497Z,32.37
2018-12-15T17:50:19.371Z,33.13
2018-12-15T17:52:47.095Z,28.27
2018-12-15T17:55:14.821Z,28.17
2018-12-15T17:57:42.617Z,28.07
2018-12-15T18:00:11.665Z,38.67
2018-12-15T18:02:39.509Z,29.83
2018-12-15T18:05:07.365Z,27.13
2018-12-15T18:07:35.037Z,26.33
2018-12-15T18:10:03.253Z,25.57
2018-12-15T18:12:30.956Z,24.60
2018-12-15T18:14:58.656Z,26.90
2018-12-15T18:17:26.358Z,25.60
2018-12-15T18:19:54.055Z,26.33
2018-12-15T18:22:21.733Z,28.40
2018-12-15T18:24:49.463Z,27.90
2018-12-15T18:27:17.179Z,31.27
2018-12-15T18:29:44.862Z,29.77
2018-12-15T18:32:12.609Z,27.17
2018-12-15T18:34:40.357Z,28.67
2018-12-15T18:37:08.053Z,27.77
2018-12-15T18:39:35.770Z,28.23
2018-12-15T18:42:03.495Z,27.43
2018-12-15T18:44:31.147Z,21.80
2018-12-15T18:46:58.854Z,21.53
2018-12-15T18:49:26.607Z,20.20
2018-12-15T18:51:54.325Z,20.13
2018-12-15T18:54:22.130Z,18.47
2018-12-15T18:56:50.184Z,19.67
2018-12-15T18:59:18.331Z,21.40
2018-12-15T19:01:46.042Z,23.37
2018-12-15T19:04:13.753Z,25.67
2018-12-15T19:06:41.445Z,19.93
2018-12-15T19:09:09.137Z,19.47
2018-12-15T19:11:36.873Z,20.07
2018-12-15T19:14:04.552Z,19.67
2018-12-15T19:16:32.242Z,21.67
2018-12-15T19:19:00.065Z,21.47
2018-12-15T19:21:27.793Z,21.47
2018-12-15T19:23:55.463Z,21.03
2018-12-15T19:26:23.149Z,21.70
2018-12-15T19:28:50.833Z,20.40
2018-12-15T19:31:18.527Z,19.40
2018-12-15T19:33:46.241Z,17.30
2018-12-15T19:36:13.965Z,17.90
2018-12-15T19:38:41.618Z,18.70
2018-12-15T19:41:09.323Z,20.37
2018-12-15T19:43:36.997Z,20.50
2018-12-15T19:46:04.656Z,21.43
2018-12-15T19:48:32.433Z,22.27
2018-12-15T19:51:00.121Z,23.97
2018-12-15T19:53:27.760Z,22.90
2018-12-15T19:55:55.451Z,23.73
2018-12-15T19:58:23.147Z,21.17
2018-12-15T20:00:58.017Z,22.23
2018-12-15T20:03:25.701Z,22.63
2018-12-15T20:05:53.393Z,21.53
2018-12-15T20:08:21.078Z,26.17
2018-12-15T20:10:48.743Z,25.47
2018-12-15T20:13:16.461Z,21.13
2018-12-15T20:15:44.160Z,18.90
2018-12-15T20:18:11.839Z,16.53
2018-12-15T20:20:39.525Z,14.23
2018-12-15T20:23:07.344Z,13.10
2018-12-15T20:25:35.136Z,10.97
2018-12-15T20:28:02.817Z,12.20
2018-12-15T20:30:30.563Z,11.50
2018-12-15T20:32:58.955Z,12.50
2018-12-15T20:35:26.779Z,12.33
2018-12-15T20:37:54.537Z,11.87
2018-12-15T20:40:22.405Z,11.43
2018-12-15T20:42:50.120Z,13.60
2018-12-15T20:45:17.868Z,12.00
2018-12-15T20:47:45.579Z,11.03
2018-12-15T20:50:13.253Z,10.20
2018-12-15T20:52:47.354Z,11.07
2018-12-15T20:55:10.865Z,11.37
2018-12-15T20:57:38.566Z,12.87
2018-12-15T21:00:08.042Z,11.50
2018-12-15T21:02:35.862Z,12.40
2018-12-15T21:05:03.889Z,10.90
2018-12-15T21:07:31.683Z,11.80
2018-12-15T21:09:59.378Z,10.53
2018-12-15T21:12:27.077Z,11.23
2018-12-15T21:14:56.860Z,9.33
2018-12-15T21:17:24.576Z,11.80
2018-12-15T21:19:52.304Z,11.17
2018-12-15T21:22:20.496Z,11.27
2018-12-15T21:24:48.326Z,11.73
2018-12-15T21:27:16.069Z,10.00
2018-12-15T21:29:43.830Z,10.10
2018-12-15T21:32:11.509Z,12.00
2018-12-15T21:34:39.204Z,12.30
2018-12-15T21:37:10.011Z,12.70
2018-12-15T21:39:37.762Z,10.93
2018-12-15T21:42:05.473Z,12.00
2018-12-15T21:44:33.190Z,11.30
2018-12-15T21:47:00.859Z,10.30
2018-12-15T21:49:28.552Z,9.90
2018-12-15T21:51:56.587Z,9.90
2018-12-15T21:54:24.342Z,9.10
2018-12-15T21:56:52.040Z,9.53
2018-12-15T21:59:19.729Z,8.67
2018-12-15T22:01:47.429Z,9.27
2018-12-15T22:04:15.141Z,9.33
2018-12-15T22:09:17.472Z,8.77
2018-12-15T22:11:52.753Z,10.27
2018-12-15T22:14:20.501Z,9.93
2018-12-15T22:16:48.150Z,10.03
2018-12-15T22:19:15.926Z,12.40
2018-12-15T22:21:43.591Z,11.23
2018-12-15T22:24:11.344Z,11.73
2018-12-15T22:26:39.078Z,9.50
2018-12-15T22:29:06.737Z,8.47
2018-12-15T22:31:34.527Z,10.10
2018-12-15T22:34:02.313Z,9.90
2018-12-15T22:36:30.027Z,10.20
2018-12-15T22:38:57.749Z,9.70
2018-12-15T22:41:25.481Z,9.27
2018-12-15T22:43:53.219Z,9.97
2018-12-15T22:46:20.949Z,10.17
2018-12-15T22:48:48.693Z,9.13
2018-12-15T22:51:16.430Z,9.73
2018-12-15T22:53:44.117Z,9.53
2018-12-15T22:56:11.853Z,11.13
2018-12-15T22:58:39.568Z,10.40
2018-12-15T23:01:11.925Z,10.57
2018-12-15T23:03:39.838Z,10.50
2018-12-15T23:06:07.825Z,11.37
2018-12-15T23:08:35.598Z,10.77
2018-12-15T23:11:03.521Z,12.30
2018-12-15T23:13:31.220Z,10.73
2018-12-15T23:15:58.937Z,12.60
2018-12-15T23:18:26.683Z,12.57
2018-12-15T23:20:54.384Z,12.27
2018-12-15T23:23:22.102Z,10.73
2018-12-15T23:25:49.846Z,10.07
2018-12-15T23:28:17.548Z,12.53
2018-12-15T23:30:45.258Z,13.77
2018-12-15T23:33:12.971Z,13.33
2018-12-15T23:35:40.695Z,13.93
2018-12-15T23:38:08.400Z,12.97
2018-12-15T23:40:36.278Z,14.53
2018-12-15T23:43:04.123Z,13.17
2018-12-15T23:45:31.876Z,14.37
2018-12-15T23:47:59.570Z,13.70
2018-12-15T23:50:27.296Z,14.27
2018-12-15T23:52:55.019Z,14.43
2018-12-15T23:55:22.713Z,13.73
2018-12-15T23:57:50.414Z,15.13
